Athens, Greece
Current Conditions -  °F | °C
As of 9:20 PM on Sunday 21 Dec 2014 (Local Time) from LGEL Reporting Station
Few Clouds Few Clouds  
Wind Chill: 54°   Ceiling: Unl
Heat Index: 54°   Visibility: 6mi
Dew Point: 34°   Wind: 12mph
Humidity: 47%   Direction: 10°N
Pressure: 30.18"   Gusts: 23mph
Location:  37.98°N, 23.73°E
Report Text: LGEL 211820Z 01010G20KT 9999 FEW025 12/01 Q1022
Loading
Personal Weather Stations






























Interactive Weather Map New forecast layout! Learn more

10-Day Weather Forecast

Advertisements
Track Severe Weather on mobile